Time;durP1;ratioP1;P1;durP2;ratioP2;P2;SDS_P1;SDS_P2;PMS_P1;PMS_P2;Temp;Humidity;BMP_temperature;BMP_pressure;BME280_temperature;BME280_humidity;BME280_pressure;Samples;Min_cycle;Max_cycle;Signal;HPM_P1;HPM_P2
2022/03/03 00:00:11;;;;;;;15.20;12.27;;;;;;;;;;5115657;28;20412;-75
2022/03/03 00:02:37;;;;;;;14.13;10.60;;;;;;;;;;5115615;28;20423;-77
2022/03/03 00:05:04;;;;;;;14.10;10.10;;;;;;;;;;5115828;28;20407;-77
2022/03/03 00:07:30;;;;;;;12.27;10.10;;;;;;;;;;5115293;28;20463;-77
2022/03/03 00:09:56;;;;;;;13.37;10.13;;;;;;;;;;5115795;28;20908;-78
2022/03/03 00:12:22;;;;;;;14.00;10.37;;;;;;;;;;5115367;28;20502;-78
2022/03/03 00:14:48;;;;;;;11.87;10.43;;;;;;;;;;5115603;28;20415;-78
2022/03/03 00:17:14;;;;;;;12.40;11.13;;;;;;;;;;5115570;28;20426;-77
2022/03/03 00:19:42;;;;;;;19.60;11.03;;;;;;;;;;5115605;28;20415;-78
2022/03/03 00:22:08;;;;;;;18.33;11.60;;;;;;;;;;5115171;28;20778;-78
2022/03/03 00:24:34;;;;;;;16.97;10.50;;;;;;;;;;5115085;28;20993;-77
2022/03/03 00:27:00;;;;;;;16.80;11.90;;;;;;;;;;5115876;28;20538;-78
2022/03/03 00:29:26;;;;;;;13.83;11.40;;;;;;;;;;5115628;28;20946;-78
2022/03/03 00:31:52;;;;;;;19.93;11.57;;;;;;;;;;5115052;28;20885;-78
2022/03/03 00:34:18;;;;;;;19.33;11.13;;;;;;;;;;5114997;28;20424;-77
2022/03/03 00:36:44;;;;;;;16.37;12.00;;;;;;;;;;5114883;28;20464;-78
2022/03/03 00:39:10;;;;;;;19.90;11.37;;;;;;;;;;5115058;28;20412;-78
2022/03/03 00:41:36;;;;;;;18.03;12.00;;;;;;;;;;5114880;28;20515;-75
2022/03/03 00:44:03;;;;;;;18.50;11.73;;;;;;;;;;5114996;28;20849;-75
2022/03/03 00:46:29;;;;;;;15.13;12.17;;;;;;;;;;5114633;28;20885;-75
2022/03/03 00:48:55;;;;;;;17.40;12.53;;;;;;;;;;5114459;28;20487;-74
2022/03/03 00:51:21;;;;;;;21.37;14.00;;;;;;;;;;5114946;28;20415;-75
2022/03/03 00:53:49;;;;;;;17.90;11.67;;;;;;;;;;5114568;28;21018;-74
2022/03/03 00:56:16;;;;;;;15.73;10.07;;;;;;;;;;5114457;28;20420;-74
2022/03/03 00:58:42;;;;;;;33.03;11.47;;;;;;;;;;5114811;28;20418;-75
2022/03/03 01:01:08;;;;;;;12.07;9.97;;;;;;;;;;5114345;28;20411;-74
2022/03/03 01:03:34;;;;;;;16.47;10.87;;;;;;;;;;5114910;28;20419;-75
2022/03/03 01:06:00;;;;;;;16.37;12.67;;;;;;;;;;5114323;28;20415;-77
2022/03/03 01:08:26;;;;;;;17.90;13.10;;;;;;;;;;5113811;28;20816;-75
2022/03/03 01:10:52;;;;;;;18.03;11.47;;;;;;;;;;5114278;28;20411;-75
2022/03/03 01:13:20;;;;;;;13.83;10.37;;;;;;;;;;5114594;28;20412;-75
2022/03/03 01:15:46;;;;;;;14.20;10.20;;;;;;;;;;5114409;28;20897;-77
2022/03/03 01:18:12;;;;;;;11.83;10.03;;;;;;;;;;5114461;28;20499;-75
2022/03/03 01:20:38;;;;;;;24.13;10.50;;;;;;;;;;5095837;28;20481;-75
2022/03/03 01:23:05;;;;;;;14.80;9.97;;;;;;;;;;5114391;28;20822;-75
2022/03/03 01:25:31;;;;;;;15.07;10.50;;;;;;;;;;5114266;28;20404;-74
2022/03/03 01:27:57;;;;;;;14.73;10.57;;;;;;;;;;5114148;28;20970;-75
2022/03/03 01:30:23;;;;;;;14.40;11.23;;;;;;;;;;5114293;28;20411;-75
2022/03/03 01:32:49;;;;;;;16.30;10.33;;;;;;;;;;5114169;28;20408;-75
2022/03/03 01:35:15;;;;;;;15.33;9.33;;;;;;;;;;5113671;28;20504;-75
2022/03/03 01:37:41;;;;;;;13.77;10.10;;;;;;;;;;5113666;28;20476;-75
2022/03/03 01:40:07;;;;;;;10.10;9.00;;;;;;;;;;5114305;28;20403;-75
2022/03/03 01:42:34;;;;;;;14.70;10.47;;;;;;;;;;5114278;28;20420;-75
2022/03/03 01:45:00;;;;;;;13.43;10.40;;;;;;;;;;5113998;28;20422;-75
2022/03/03 01:47:26;;;;;;;13.30;9.43;;;;;;;;;;5113771;28;20566;-75
2022/03/03 01:49:53;;;;;;;11.23;10.00;;;;;;;;;;5113932;28;20450;-75
2022/03/03 01:52:19;;;;;;;12.73;8.90;;;;;;;;;;5113569;28;20763;-75
2022/03/03 01:54:46;;;;;;;12.87;9.37;;;;;;;;;;5113796;28;20518;-74
2022/03/03 01:57:12;;;;;;;16.87;10.97;;;;;;;;;;5113508;28;20412;-75
2022/03/03 01:59:39;;;;;;;14.90;10.03;;;;;;;;;;5113872;28;20422;-76
2022/03/03 02:02:07;;;;;;;14.30;10.23;;;;;;;;;;5113324;28;20891;-75
2022/03/03 02:04:33;;;;;;;14.43;11.07;;;;;;;;;;5113703;28;20412;-75
2022/03/03 02:07:00;;;;;;;14.57;10.50;;;;;;;;;;5113614;28;20416;-75
2022/03/03 02:09:26;;;;;;;19.17;10.23;;;;;;;;;;5113730;28;20423;-75
2022/03/03 02:11:52;;;;;;;14.80;10.73;;;;;;;;;;5114187;28;20489;-75
2022/03/03 02:14:18;;;;;;;15.00;10.40;;;;;;;;;;5113537;28;20834;-75
2022/03/03 02:16:44;;;;;;;14.07;11.13;;;;;;;;;;5113604;28;20465;-75
2022/03/03 02:19:14;;;;;;;13.43;9.77;;;;;;;;;;5113792;28;20494;-75
2022/03/03 02:21:40;;;;;;;11.40;9.70;;;;;;;;;;5117785;28;20411;-75
2022/03/03 02:24:07;;;;;;;14.97;11.20;;;;;;;;;;5117787;28;20428;-75
2022/03/03 02:26:33;;;;;;;12.60;9.83;;;;;;;;;;5117577;28;20419;-75
2022/03/03 02:28:59;;;;;;;18.67;11.33;;;;;;;;;;5117404;28;20558;-75
2022/03/03 02:31:25;;;;;;;14.60;10.73;;;;;;;;;;5117832;28;20456;-75
2022/03/03 02:33:51;;;;;;;13.30;10.60;;;;;;;;;;5117243;28;20428;-75
2022/03/03 02:36:18;;;;;;;12.40;9.87;;;;;;;;;;5117746;28;20408;-75
2022/03/03 02:38:44;;;;;;;13.83;9.67;;;;;;;;;;5117894;28;20427;-75
2022/03/03 02:41:10;;;;;;;15.20;10.47;;;;;;;;;;5117210;28;20412;-75
2022/03/03 02:43:36;;;;;;;16.47;11.10;;;;;;;;;;5117174;28;20422;-75
2022/03/03 02:46:02;;;;;;;16.10;9.90;;;;;;;;;;5117384;28;20407;-76
2022/03/03 02:48:28;;;;;;;12.40;9.73;;;;;;;;;;5116860;28;20613;-75
2022/03/03 02:50:54;;;;;;;12.43;9.77;;;;;;;;;;5117133;28;20435;-75
2022/03/03 02:53:20;;;;;;;14.50;10.60;;;;;;;;;;5117036;28;20775;-75
2022/03/03 02:55:46;;;;;;;13.37;9.30;;;;;;;;;;5117166;28;20843;-76
2022/03/03 02:58:12;;;;;;;14.53;10.70;;;;;;;;;;5116897;28;20419;-75
2022/03/03 03:00:42;;;;;;;14.50;9.80;;;;;;;;;;5116890;28;20446;-75
2022/03/03 03:03:09;;;;;;;13.23;11.07;;;;;;;;;;5117410;28;20427;-75
2022/03/03 03:05:35;;;;;;;13.07;9.43;;;;;;;;;;5117318;28;20423;-75
2022/03/03 03:08:01;;;;;;;15.00;10.23;;;;;;;;;;5116930;28;20567;-75
2022/03/03 03:10:27;;;;;;;15.40;10.90;;;;;;;;;;5116591;28;20414;-75
2022/03/03 03:12:53;;;;;;;17.73;10.77;;;;;;;;;;5116910;28;20451;-74
2022/03/03 03:15:19;;;;;;;17.43;10.23;;;;;;;;;;5116798;28;20418;-75
2022/03/03 03:17:45;;;;;;;12.87;10.17;;;;;;;;;;5116645;28;20924;-75
2022/03/03 03:20:12;;;;;;;12.53;8.33;;;;;;;;;;5116712;28;20420;-75
2022/03/03 03:22:38;;;;;;;15.83;9.00;;;;;;;;;;5116345;28;20424;-75
2022/03/03 03:25:09;;;;;;;11.40;9.27;;;;;;;;;;5098031;28;20932;-75
2022/03/03 03:27:35;;;;;;;16.13;10.43;;;;;;;;;;5116702;28;20612;-75
2022/03/03 03:30:01;;;;;;;19.30;11.00;;;;;;;;;;5116527;28;20412;-75
2022/03/03 03:32:27;;;;;;;15.93;9.67;;;;;;;;;;5116140;28;20427;-75
2022/03/03 03:34:53;;;;;;;12.10;9.70;;;;;;;;;;5116764;28;20416;-78
2022/03/03 03:37:19;;;;;;;20.30;11.67;;;;;;;;;;5116167;28;20423;-75
2022/03/03 03:39:45;;;;;;;14.80;10.37;;;;;;;;;;5116078;28;20415;-76
2022/03/03 03:42:11;;;;;;;12.40;10.23;;;;;;;;;;5116037;28;20443;-76
2022/03/03 03:44:38;;;;;;;17.70;10.60;;;;;;;;;;5116263;28;20847;-76
2022/03/03 03:47:04;;;;;;;18.03;8.73;;;;;;;;;;5115731;28;20496;-75
2022/03/03 03:49:30;;;;;;;18.93;11.37;;;;;;;;;;5116267;28;20407;-75
2022/03/03 03:51:57;;;;;;;14.10;10.27;;;;;;;;;;5115950;28;20500;-75
2022/03/03 03:54:23;;;;;;;10.00;9.00;;;;;;;;;;5116064;28;20411;-78
2022/03/03 03:56:48;;;;;;;13.33;9.40;;;;;;;;;;5115818;28;20412;-75
2022/03/03 03:59:14;;;;;;;10.50;8.77;;;;;;;;;;5115821;28;20423;-76
2022/03/03 04:01:40;;;;;;;11.80;9.87;;;;;;;;;;5115861;28;20408;-75
2022/03/03 04:04:06;;;;;;;14.40;10.20;;;;;;;;;;5115870;28;20415;-75
2022/03/03 04:06:32;;;;;;;12.83;10.23;;;;;;;;;;5097290;28;20420;-74
2022/03/03 04:08:58;;;;;;;9.30;8.40;;;;;;;;;;5115510;28;20467;-75
2022/03/03 04:11:25;;;;;;;13.97;9.73;;;;;;;;;;5115482;28;20443;-76
2022/03/03 04:13:51;;;;;;;15.50;10.20;;;;;;;;;;5115449;28;20416;-76
2022/03/03 04:16:17;;;;;;;11.97;8.47;;;;;;;;;;5115625;28;20417;-75
2022/03/03 04:18:43;;;;;;;18.00;10.50;;;;;;;;;;5115343;28;20416;-75
2022/03/03 04:21:09;;;;;;;17.47;8.93;;;;;;;;;;5115602;28;20423;-74
2022/03/03 04:23:35;;;;;;;11.83;9.70;;;;;;;;;;5115098;28;20434;-76
2022/03/03 04:26:01;;;;;;;12.07;8.60;;;;;;;;;;5115693;28;20770;-75
2022/03/03 04:28:28;;;;;;;10.90;9.30;;;;;;;;;;5115309;28;20478;-75
2022/03/03 04:30:54;;;;;;;12.57;8.53;;;;;;;;;;5115703;28;20491;-75
2022/03/03 04:33:19;;;;;;;12.27;8.17;;;;;;;;;;5115052;28;20415;-75
2022/03/03 04:35:45;;;;;;;19.97;10.10;;;;;;;;;;5114907;28;20400;-75
2022/03/03 04:38:11;;;;;;;14.60;11.93;;;;;;;;;;5115254;28;20474;-76
2022/03/03 04:40:37;;;;;;;14.20;10.27;;;;;;;;;;5115394;28;20909;-75
2022/03/03 04:43:03;;;;;;;14.17;9.00;;;;;;;;;;5114250;28;20750;-75
2022/03/03 04:45:29;;;;;;;16.03;10.93;;;;;;;;;;5115008;28;20499;-75
2022/03/03 04:47:55;;;;;;;12.73;9.27;;;;;;;;;;5114653;28;20482;-75
2022/03/03 04:50:21;;;;;;;42.73;21.67;;;;;;;;;;5114882;28;20424;-75
2022/03/03 04:52:47;;;;;;;31.80;18.10;;;;;;;;;;5114602;28;20404;-75
2022/03/03 04:55:13;;;;;;;54.17;25.47;;;;;;;;;;5115083;28;20412;-75
2022/03/03 04:57:39;;;;;;;34.47;19.17;;;;;;;;;;5114650;28;20916;-75
2022/03/03 05:00:06;;;;;;;38.93;21.87;;;;;;;;;;5114525;28;20819;-75
2022/03/03 05:02:32;;;;;;;37.40;20.13;;;;;;;;;;5114447;28;20437;-75
2022/03/03 05:04:58;;;;;;;36.70;18.60;;;;;;;;;;5114579;28;20419;-74
2022/03/03 05:07:24;;;;;;;22.23;13.17;;;;;;;;;;5114882;28;20464;-75
2022/03/03 05:09:50;;;;;;;20.60;12.17;;;;;;;;;;5114335;28;20905;-75
2022/03/03 05:12:16;;;;;;;13.90;10.37;;;;;;;;;;5114471;28;20416;-76
2022/03/03 05:14:42;;;;;;;18.57;9.90;;;;;;;;;;5114473;28;20517;-75
2022/03/03 05:17:08;;;;;;;11.20;9.33;;;;;;;;;;5114310;28;20464;-75
2022/03/03 05:19:34;;;;;;;12.47;9.37;;;;;;;;;;5114150;28;20834;-76
2022/03/03 05:22:00;;;;;;;16.33;9.23;;;;;;;;;;5114555;28;20411;-75
2022/03/03 05:24:26;;;;;;;17.83;10.23;;;;;;;;;;5114330;28;20824;-75
2022/03/03 05:26:53;;;;;;;13.50;9.40;;;;;;;;;;5113882;28;20416;-75
2022/03/03 05:29:19;;;;;;;10.80;8.93;;;;;;;;;;5114293;28;20773;-75
2022/03/03 05:31:44;;;;;;;12.50;9.43;;;;;;;;;;5113940;28;20412;-75
2022/03/03 05:34:10;;;;;;;11.83;8.47;;;;;;;;;;5114160;28;20885;-76
2022/03/03 05:36:41;;;;;;;15.03;9.67;;;;;;;;;;5114067;28;20435;-75
2022/03/03 05:39:07;;;;;;;15.80;10.07;;;;;;;;;;5114074;28;20396;-75
2022/03/03 05:41:34;;;;;;;12.73;8.63;;;;;;;;;;5114066;28;20889;-75
2022/03/03 05:44:00;;;;;;;13.90;11.07;;;;;;;;;;5113896;28;20411;-77
2022/03/03 05:46:26;;;;;;;22.77;13.50;;;;;;;;;;5113865;28;20473;-75
2022/03/03 05:48:52;;;;;;;20.13;13.80;;;;;;;;;;5113410;28;20483;-75
2022/03/03 05:51:19;;;;;;;16.60;11.17;;;;;;;;;;5114122;28;20461;-75
2022/03/03 05:53:45;;;;;;;20.33;13.00;;;;;;;;;;5094632;28;20456;-74
2022/03/03 05:56:12;;;;;;;13.80;11.37;;;;;;;;;;5113251;28;20447;-75
2022/03/03 05:58:43;;;;;;;20.97;11.73;;;;;;;;;;5113777;28;20431;-75
2022/03/03 06:01:10;;;;;;;17.60;10.63;;;;;;;;;;5113539;28;20416;-75
2022/03/03 06:03:36;;;;;;;13.60;9.90;;;;;;;;;;5113736;28;20775;-75
2022/03/03 06:06:19;;;;;;;14.10;10.00;;;;;;;;;;5095167;28;20492;-76
2022/03/03 06:08:57;;;;;;;16.00;9.63;;;;;;;;;;5113342;28;20463;-75
2022/03/03 06:11:25;;;;;;;8.80;8.10;;;;;;;;;;5113688;28;20418;-75
2022/03/03 06:13:53;;;;;;;12.00;9.07;;;;;;;;;;5113588;28;20456;-75
2022/03/03 06:16:19;;;;;;;11.40;9.67;;;;;;;;;;5113550;28;20415;-75
2022/03/03 06:18:49;;;;;;;11.00;8.10;;;;;;;;;;5113503;28;20416;-75
2022/03/03 06:21:16;;;;;;;13.90;9.17;;;;;;;;;;5113173;28;20897;-76
2022/03/03 06:23:43;;;;;;;8.90;7.83;;;;;;;;;;5113773;28;20735;-75
2022/03/03 06:26:11;;;;;;;9.47;8.47;;;;;;;;;;5113159;28;20416;-75
2022/03/03 06:28:37;;;;;;;11.70;9.27;;;;;;;;;;5113197;28;20984;-75
2022/03/03 06:31:04;;;;;;;8.57;7.40;;;;;;;;;;5113377;28;20500;-75
2022/03/03 06:33:30;;;;;;;9.73;8.73;;;;;;;;;;5113146;28;20412;-75
2022/03/03 06:35:56;;;;;;;9.80;8.53;;;;;;;;;;5113560;28;21051;-74
2022/03/03 06:38:22;;;;;;;12.43;9.27;;;;;;;;;;5113109;28;20757;-74
2022/03/03 06:40:49;;;;;;;12.30;8.33;;;;;;;;;;5113115;28;20432;-75
2022/03/03 06:43:15;;;;;;;14.27;8.60;;;;;;;;;;5094784;28;20514;-75
2022/03/03 06:45:41;;;;;;;9.20;8.30;;;;;;;;;;5113097;28;20507;-75
2022/03/03 06:48:07;;;;;;;18.80;10.20;;;;;;;;;;5112777;28;20482;-75
2022/03/03 06:50:37;;;;;;;11.57;9.47;;;;;;;;;;5112913;28;20416;-75
2022/03/03 06:53:04;;;;;;;10.47;8.93;;;;;;;;;;5113157;28;20424;-75
2022/03/03 06:55:30;;;;;;;12.13;8.87;;;;;;;;;;5113012;28;20412;-76
2022/03/03 06:57:58;;;;;;;15.93;9.60;;;;;;;;;;5112845;28;20420;-75
2022/03/03 07:00:25;;;;;;;9.20;8.27;;;;;;;;;;5112893;28;20416;-74
2022/03/03 07:02:52;;;;;;;9.73;7.77;;;;;;;;;;5113193;28;20476;-73
2022/03/03 07:05:18;;;;;;;8.17;7.37;;;;;;;;;;5112899;28;20419;-73
2022/03/03 07:07:45;;;;;;;12.03;8.90;;;;;;;;;;5116487;28;20848;-73
2022/03/03 07:10:12;;;;;;;14.07;7.90;;;;;;;;;;5117031;28;20427;-73
2022/03/03 07:12:38;;;;;;;10.73;8.60;;;;;;;;;;5116704;28;20787;-73
2022/03/03 07:15:04;;;;;;;24.93;8.87;;;;;;;;;;5116470;28;20420;-73
2022/03/03 07:17:39;;;;;;;14.70;8.20;;;;;;;;;;5116606;28;20408;-73
2022/03/03 07:20:06;;;;;;;9.07;7.60;;;;;;;;;;5116550;28;20416;-73
2022/03/03 07:22:38;;;;;;;10.13;8.10;;;;;;;;;;5116385;28;20415;-73
2022/03/03 07:25:06;;;;;;;12.87;8.33;;;;;;;;;;5116134;28;20774;-73
2022/03/03 07:27:33;;;;;;;13.63;9.70;;;;;;;;;;5116352;28;20493;-73
2022/03/03 07:30:00;;;;;;;18.10;9.40;;;;;;;;;;5116692;28;20431;-73
2022/03/03 07:32:34;;;;;;;16.50;9.77;;;;;;;;;;5097633;28;20427;-67
2022/03/03 07:35:03;;;;;;;11.50;8.03;;;;;;;;;;5115906;28;20443;-74
2022/03/03 07:37:32;;;;;;;14.97;9.80;;;;;;;;;;5116222;28;20409;-73
2022/03/03 07:40:02;;;;;;;11.77;8.90;;;;;;;;;;5116184;28;20408;-73
2022/03/03 07:42:28;;;;;;;6.83;5.43;;;;;;;;;;5115869;28;20431;-69
2022/03/03 07:44:55;;;;;;;12.47;8.80;;;;;;;;;;5115596;28;20411;-73
2022/03/03 07:47:22;;;;;;;6.90;6.30;;;;;;;;;;5115345;28;20479;-72
2022/03/03 07:49:48;;;;;;;21.80;13.20;;;;;;;;;;5116081;28;20881;-72
2022/03/03 07:52:13;;;;;;;21.13;10.17;;;;;;;;;;5115539;28;20557;-72
2022/03/03 07:54:39;;;;;;;35.13;16.90;;;;;;;;;;5115927;28;20424;-73
2022/03/03 07:57:07;;;;;;;48.50;20.17;;;;;;;;;;5115878;28;20473;-72
2022/03/03 07:59:34;;;;;;;29.87;17.53;;;;;;;;;;5116033;28;20419;-72
2022/03/03 08:02:04;;;;;;;21.93;14.07;;;;;;;;;;5115536;28;20923;-72
2022/03/03 08:04:31;;;;;;;14.63;10.37;;;;;;;;;;5115729;28;20793;-73
2022/03/03 08:07:04;;;;;;;22.37;10.80;;;;;;;;;;5115615;28;20485;-73
2022/03/03 08:09:31;;;;;;;15.40;9.97;;;;;;;;;;5115814;28;20416;-72
2022/03/03 08:11:59;;;;;;;13.60;10.23;;;;;;;;;;5115448;28;20988;-72
2022/03/03 08:14:25;;;;;;;12.47;9.57;;;;;;;;;;5115604;28;20420;-72
2022/03/03 08:16:51;;;;;;;13.90;10.93;;;;;;;;;;5114717;28;20412;-72
2022/03/03 08:19:17;;;;;;;14.37;10.43;;;;;;;;;;5114966;28;20436;-73
2022/03/03 08:21:46;;;;;;;16.50;10.17;;;;;;;;;;5115074;28;20408;-72
2022/03/03 08:24:12;;;;;;;19.73;10.23;;;;;;;;;;5114911;28;20913;-73
2022/03/03 08:26:40;;;;;;;15.53;11.70;;;;;;;;;;5114855;28;20805;-71
2022/03/03 08:29:06;;;;;;;15.40;11.07;;;;;;;;;;5115532;28;20592;-72
2022/03/03 08:31:37;;;;;;;32.33;11.97;;;;;;;;;;5115646;28;20420;-73
2022/03/03 08:34:12;;;;;;;17.17;10.77;;;;;;;;;;5096633;28;20420;-72
2022/03/03 08:36:45;;;;;;;16.10;11.40;;;;;;;;;;5114909;28;20391;-73
2022/03/03 08:39:13;;;;;;;13.40;10.10;;;;;;;;;;5114918;28;20416;-72
2022/03/03 08:41:40;;;;;;;16.70;10.00;;;;;;;;;;5115005;28;20423;-75
2022/03/03 08:44:07;;;;;;;13.13;10.43;;;;;;;;;;5115020;28;20419;-74
2022/03/03 08:46:34;;;;;;;13.43;9.07;;;;;;;;;;5114510;28;20424;-73
2022/03/03 08:49:01;;;;;;;19.00;12.57;;;;;;;;;;5114577;28;20495;-73
2022/03/03 08:51:28;;;;;;;19.37;10.80;;;;;;;;;;5115017;28;20422;-75
2022/03/03 08:53:54;;;;;;;16.73;10.47;;;;;;;;;;5114638;28;20407;-76
2022/03/03 08:56:22;;;;;;;10.97;9.30;;;;;;;;;;5114751;28;20411;-73
2022/03/03 08:58:48;;;;;;;15.57;10.30;;;;;;;;;;5114730;28;20416;-73
2022/03/03 09:01:15;;;;;;;17.90;10.40;;;;;;;;;;5114543;28;20420;-74
2022/03/03 09:03:43;;;;;;;13.20;9.40;;;;;;;;;;5114748;28;20905;-73
2022/03/03 09:06:09;;;;;;;13.23;9.47;;;;;;;;;;5114730;28;20468;-73
2022/03/03 09:08:35;;;;;;;11.03;9.13;;;;;;;;;;5114003;28;20536;-71
2022/03/03 09:11:01;;;;;;;14.43;8.40;;;;;;;;;;5114058;28;20420;-72
2022/03/03 09:13:27;;;;;;;15.93;10.80;;;;;;;;;;5114261;28;20420;-73
2022/03/03 09:15:53;;;;;;;14.03;9.10;;;;;;;;;;5114529;28;20411;-73
2022/03/03 09:18:19;;;;;;;14.60;9.87;;;;;;;;;;5114219;28;20451;-73
2022/03/03 09:20:45;;;;;;;14.40;10.10;;;;;;;;;;5114467;28;20411;-73
2022/03/03 09:23:11;;;;;;;18.50;10.40;;;;;;;;;;5114093;28;20420;-73
2022/03/03 09:25:37;;;;;;;28.90;12.20;;;;;;;;;;5113882;28;20484;-73
2022/03/03 09:28:04;;;;;;;17.77;11.00;;;;;;;;;;5114811;28;20538;-73
2022/03/03 09:30:30;;;;;;;17.70;9.73;;;;;;;;;;5114088;28;20481;-73
2022/03/03 09:32:56;;;;;;;18.67;10.77;;;;;;;;;;5114187;28;20408;-73
2022/03/03 09:35:22;;;;;;;15.80;10.83;;;;;;;;;;5113728;28;20477;-73
2022/03/03 09:37:48;;;;;;;20.93;13.17;;;;;;;;;;5095576;28;20841;-73
2022/03/03 09:40:14;;;;;;;20.60;12.70;;;;;;;;;;5113940;28;20470;-73
2022/03/03 09:42:40;;;;;;;16.10;11.70;;;;;;;;;;5113679;28;20418;-73
2022/03/03 09:45:08;;;;;;;21.00;11.67;;;;;;;;;;5113791;28;20785;-74
2022/03/03 09:47:35;;;;;;;15.40;10.87;;;;;;;;;;5113293;28;20483;-73
2022/03/03 09:50:01;;;;;;;23.30;13.07;;;;;;;;;;5113832;28;20416;-73
2022/03/03 09:52:28;;;;;;;15.13;10.70;;;;;;;;;;5113709;28;20424;-73
2022/03/03 09:54:55;;;;;;;24.07;12.67;;;;;;;;;;5113435;28;20416;-73
2022/03/03 09:57:21;;;;;;;27.07;11.80;;;;;;;;;;5113554;28;20476;-73
2022/03/03 09:59:47;;;;;;;18.77;10.27;;;;;;;;;;5113417;28;20881;-73
2022/03/03 10:02:13;;;;;;;14.07;10.60;;;;;;;;;;5113684;28;20782;-72
2022/03/03 10:04:39;;;;;;;17.03;12.20;;;;;;;;;;5113329;28;20412;-72
2022/03/03 10:07:07;;;;;;;14.27;12.20;;;;;;;;;;5113751;28;20422;-73
2022/03/03 10:09:59;;;;;;;13.93;10.67;;;;;;;;;;5113514;28;20419;-72
2022/03/03 10:12:21;;;;;;;16.20;12.20;;;;;;;;;;5113036;28;20407;-72
2022/03/03 10:14:48;;;;;;;20.60;13.23;;;;;;;;;;5113053;28;20919;-72
2022/03/03 10:17:14;;;;;;;15.13;11.90;;;;;;;;;;5113107;28;20408;-72
2022/03/03 10:19:57;;;;;;;17.77;13.80;;;;;;;;;;5113671;28;20464;-72
2022/03/03 10:22:57;;;;;;;20.00;13.67;;;;;;;;;;5113411;28;20415;-72
2022/03/03 10:25:33;;;;;;;16.80;13.17;;;;;;;;;;5094793;28;20420;-73
2022/03/03 10:28:06;;;;;;;25.23;13.13;;;;;;;;;;5113387;28;20542;-73
2022/03/03 10:30:46;;;;;;;40.53;14.87;;;;;;;;;;5113101;28;20407;-73
2022/03/03 10:33:16;;;;;;;20.77;13.27;;;;;;;;;;5113323;28;20396;-73
2022/03/03 10:35:42;;;;;;;19.97;14.57;;;;;;;;;;5113097;28;20498;-73
2022/03/03 10:38:08;;;;;;;19.20;12.43;;;;;;;;;;5113182;28;20435;-73
2022/03/03 10:40:38;;;;;;;18.97;13.73;;;;;;;;;;5114023;28;20420;-73
2022/03/03 10:43:04;;;;;;;30.50;13.77;;;;;;;;;;5118195;28;20399;-73
2022/03/03 10:45:32;;;;;;;22.50;13.87;;;;;;;;;;5117123;28;20411;-73
2022/03/03 10:48:03;;;;;;;31.73;16.47;;;;;;;;;;5116771;28;20525;-73
2022/03/03 10:50:45;;;;;;;24.37;15.30;;;;;;;;;;5116925;28;20416;-72
2022/03/03 10:53:11;;;;;;;22.83;15.60;;;;;;;;;;5116995;28;20426;-73
2022/03/03 10:55:37;;;;;;;25.53;15.57;;;;;;;;;;5117147;28;20416;-73
2022/03/03 10:58:03;;;;;;;24.17;15.80;;;;;;;;;;5116848;28;20525;-73
2022/03/03 11:00:30;;;;;;;25.50;14.63;;;;;;;;;;5116770;28;20412;-73
2022/03/03 11:06:00;;;;;;;24.43;14.63;;;;;;;;;;5116851;28;20406;-73
2022/03/03 11:08:26;;;;;;;20.30;13.77;;;;;;;;;;5116426;28;20474;-73
2022/03/03 11:10:52;;;;;;;18.73;13.93;;;;;;;;;;5117005;28;20419;-73
2022/03/03 11:13:18;;;;;;;28.07;14.40;;;;;;;;;;5116555;28;20798;-73
2022/03/03 11:15:44;;;;;;;21.90;14.47;;;;;;;;;;5116829;28;20994;-73
2022/03/03 11:18:11;;;;;;;23.37;15.30;;;;;;;;;;5116297;28;20415;-72
2022/03/03 11:20:37;;;;;;;21.90;14.50;;;;;;;;;;5116451;28;20420;-73
2022/03/03 11:23:04;;;;;;;36.70;15.80;;;;;;;;;;5116299;28;20435;-73
2022/03/03 11:25:35;;;;;;;27.37;14.47;;;;;;;;;;5098086;28;20469;-72
2022/03/03 11:28:14;;;;;;;21.30;14.47;;;;;;;;;;5116145;28;20467;-73
2022/03/03 11:30:41;;;;;;;24.43;16.67;;;;;;;;;;5116562;28;20384;-74
2022/03/03 11:33:24;;;;;;;19.70;15.13;;;;;;;;;;5116125;28;20415;-73
2022/03/03 11:35:52;;;;;;;25.73;16.20;;;;;;;;;;5116223;28;20498;-73
2022/03/03 11:38:19;;;;;;;24.80;15.20;;;;;;;;;;5115937;28;20404;-72
2022/03/03 11:40:55;;;;;;;22.50;15.50;;;;;;;;;;5116021;28;20434;-74
2022/03/03 11:43:21;;;;;;;23.80;15.60;;;;;;;;;;5116213;28;20488;-73
2022/03/03 11:45:51;;;;;;;37.53;17.17;;;;;;;;;;5115975;28;20498;-73
2022/03/03 11:48:22;;;;;;;24.43;15.73;;;;;;;;;;5115618;28;20494;-74
2022/03/03 11:50:48;;;;;;;24.73;16.60;;;;;;;;;;5116125;28;20495;-74
2022/03/03 11:53:18;;;;;;;24.80;17.30;;;;;;;;;;5114794;28;20790;-74
2022/03/03 11:55:47;;;;;;;26.73;16.43;;;;;;;;;;5116064;28;20416;-75
2022/03/03 11:58:16;;;;;;;40.67;18.77;;;;;;;;;;5115864;28;20415;-73
2022/03/03 12:00:58;;;;;;;29.10;16.27;;;;;;;;;;5115611;28;20411;-73
2022/03/03 12:03:24;;;;;;;26.87;16.07;;;;;;;;;;5115864;28;20921;-73
2022/03/03 12:06:04;;;;;;;21.27;15.57;;;;;;;;;;5116091;28;20435;-73
2022/03/03 12:08:34;;;;;;;28.53;18.40;;;;;;;;;;5115214;28;20467;-73
2022/03/03 12:11:09;;;;;;;25.20;16.30;;;;;;;;;;5115691;28;20443;-73
2022/03/03 12:13:43;;;;;;;27.77;16.07;;;;;;;;;;5115694;28;20901;-74
2022/03/03 12:16:12;;;;;;;24.60;15.37;;;;;;;;;;5115597;28;20416;-75
2022/03/03 12:18:38;;;;;;;25.33;15.27;;;;;;;;;;5097203;28;20812;-74
2022/03/03 12:21:23;;;;;;;13.43;9.07;;;;;;;;;;5115436;28;20418;-73
2022/03/03 12:23:49;;;;;;;31.67;16.57;;;;;;;;;;5115092;28;20801;-74
2022/03/03 12:26:15;;;;;;;28.70;17.07;;;;;;;;;;5115194;28;20905;-74
2022/03/03 12:28:43;;;;;;;29.77;17.63;;;;;;;;;;5114949;28;20570;-73
2022/03/03 12:31:20;;;;;;;29.20;16.27;;;;;;;;;;5115113;28;20925;-73
2022/03/03 12:33:57;;;;;;;34.37;17.10;;;;;;;;;;5115047;28;20415;-72
2022/03/03 12:36:23;;;;;;;25.03;15.63;;;;;;;;;;5114687;28;20414;-72
2022/03/03 12:38:51;;;;;;;32.30;15.97;;;;;;;;;;5115035;28;20416;-72
2022/03/03 12:41:17;;;;;;;29.33;16.23;;;;;;;;;;5114534;28;20460;-72
2022/03/03 12:43:43;;;;;;;31.30;18.00;;;;;;;;;;5114859;28;20423;-72
2022/03/03 12:46:10;;;;;;;21.80;15.10;;;;;;;;;;5114424;28;20425;-72
2022/03/03 12:48:36;;;;;;;28.43;16.20;;;;;;;;;;5114349;28;20482;-72
2022/03/03 12:51:02;;;;;;;22.23;17.67;;;;;;;;;;5114286;28;20407;-73
2022/03/03 12:53:34;;;;;;;27.40;17.60;;;;;;;;;;5114904;28;20420;-73
2022/03/03 12:56:00;;;;;;;34.77;20.40;;;;;;;;;;5114630;28;20422;-73
2022/03/03 12:58:30;;;;;;;27.83;18.77;;;;;;;;;;5114481;28;20908;-71
2022/03/03 13:00:56;;;;;;;23.80;15.40;;;;;;;;;;5114372;28;20836;-72
2022/03/03 13:03:23;;;;;;;26.00;14.60;;;;;;;;;;5113970;28;20901;-72
2022/03/03 13:05:50;;;;;;;18.23;13.83;;;;;;;;;;5114200;28;20415;-72
2022/03/03 13:08:24;;;;;;;27.60;16.37;;;;;;;;;;5114792;28;20558;-74
2022/03/03 13:10:51;;;;;;;26.43;13.33;;;;;;;;;;5114075;28;20823;-74
2022/03/03 13:13:17;;;;;;;27.07;14.63;;;;;;;;;;5114630;28;20489;-74
2022/03/03 13:15:43;;;;;;;37.87;16.10;;;;;;;;;;5114312;28;20412;-74
2022/03/03 13:18:14;;;;;;;31.83;15.03;;;;;;;;;;5096253;28;20935;-75
2022/03/03 13:20:41;;;;;;;22.47;16.30;;;;;;;;;;5114086;28;20814;-74
2022/03/03 13:23:08;;;;;;;19.80;13.57;;;;;;;;;;5114341;28;20410;-72
2022/03/03 13:25:34;;;;;;;20.80;13.23;;;;;;;;;;5095445;28;20420;-72
2022/03/03 13:28:01;;;;;;;21.90;15.20;;;;;;;;;;5114276;28;20529;-72
2022/03/03 13:30:27;;;;;;;28.80;15.23;;;;;;;;;;5113688;28;20420;-72
2022/03/03 13:32:53;;;;;;;27.07;15.73;;;;;;;;;;5113756;28;20491;-73
2022/03/03 13:35:20;;;;;;;29.67;14.80;;;;;;;;;;5113706;28;20933;-73
2022/03/03 13:37:46;;;;;;;21.60;14.27;;;;;;;;;;5114169;28;20905;-72
2022/03/03 13:40:20;;;;;;;29.67;16.50;;;;;;;;;;5113773;28;20465;-73
2022/03/03 13:42:46;;;;;;;24.10;16.10;;;;;;;;;;5114000;28;20435;-72
2022/03/03 13:45:12;;;;;;;28.17;14.33;;;;;;;;;;5113649;28;20410;-72
2022/03/03 13:47:40;;;;;;;27.73;16.53;;;;;;;;;;5113365;28;21021;-72
2022/03/03 13:50:07;;;;;;;25.07;13.97;;;;;;;;;;5113642;28;20431;-73
2022/03/03 13:52:33;;;;;;;25.43;14.30;;;;;;;;;;5113493;28;20487;-73
2022/03/03 13:55:01;;;;;;;27.13;14.60;;;;;;;;;;5113292;28;20423;-73
2022/03/03 13:57:45;;;;;;;19.63;11.60;;;;;;;;;;5113759;28;20469;-73
2022/03/03 14:00:12;;;;;;;22.50;14.50;;;;;;;;;;5113375;28;20424;-73
2022/03/03 14:02:48;;;;;;;26.87;16.30;;;;;;;;;;5113325;28;20412;-73
2022/03/03 14:05:14;;;;;;;21.47;13.93;;;;;;;;;;5113375;28;20406;-73
2022/03/03 14:07:49;;;;;;;16.77;12.17;;;;;;;;;;5113329;28;20467;-73
2022/03/03 14:10:15;;;;;;;21.30;12.53;;;;;;;;;;5113562;28;20886;-74
2022/03/03 14:12:59;;;;;;;17.77;12.23;;;;;;;;;;5113217;28;20456;-73
2022/03/03 14:15:26;;;;;;;16.87;11.47;;;;;;;;;;5112757;28;20473;-73
2022/03/03 14:17:52;;;;;;;14.47;10.50;;;;;;;;;;5113303;28;20876;-73
2022/03/03 14:20:19;;;;;;;21.03;12.80;;;;;;;;;;5113366;28;20504;-73
2022/03/03 14:22:54;;;;;;;14.53;11.30;;;;;;;;;;5113494;28;20578;-73
2022/03/03 14:25:20;;;;;;;17.17;12.33;;;;;;;;;;5113089;28;20394;-73